createdAt,value
2018-10-21T00:00:49.304Z,5.00
2018-10-21T00:03:18.262Z,5.00
2018-10-21T00:05:46.800Z,4.90
2018-10-21T00:08:15.345Z,4.90
2018-10-21T00:10:43.944Z,4.80
2018-10-21T00:13:12.502Z,4.80
2018-10-21T00:15:41.172Z,4.80
2018-10-21T00:18:09.652Z,4.70
2018-10-21T00:20:38.197Z,4.60
2018-10-21T00:23:06.907Z,4.70
2018-10-21T00:25:35.492Z,4.70
2018-10-21T00:28:04.084Z,4.70
2018-10-21T00:30:32.644Z,4.70
2018-10-21T00:33:01.187Z,4.70
2018-10-21T00:35:29.754Z,4.60
2018-10-21T00:37:58.347Z,4.70
2018-10-21T00:40:26.890Z,4.70
2018-10-21T00:42:55.443Z,4.70
2018-10-21T00:45:24.020Z,4.70
2018-10-21T00:47:52.544Z,4.70
2018-10-21T00:50:21.105Z,4.80
2018-10-21T00:52:49.671Z,4.80
2018-10-21T00:55:18.228Z,4.80
2018-10-21T00:57:46.814Z,4.70
2018-10-21T01:00:15.416Z,4.60
2018-10-21T01:02:43.978Z,4.60
2018-10-21T01:05:12.541Z,4.50
2018-10-21T01:07:41.041Z,4.50
2018-10-21T01:10:11.255Z,4.40
2018-10-21T01:12:40.146Z,4.50
2018-10-21T01:15:10.338Z,4.50
2018-10-21T01:17:38.892Z,4.50
2018-10-21T01:20:09.274Z,4.60
2018-10-21T01:22:37.922Z,4.60
2018-10-21T01:25:07.081Z,4.60
2018-10-21T01:27:35.643Z,4.50
2018-10-21T01:30:04.811Z,4.50
2018-10-21T01:32:33.374Z,4.50
2018-10-21T01:35:01.915Z,4.40
2018-10-21T01:37:30.528Z,4.40
2018-10-21T01:40:33.970Z,4.30
2018-10-21T01:43:03.120Z,4.20
2018-10-21T01:45:31.666Z,4.10
2018-10-21T01:48:02.048Z,4.00
2018-10-21T01:50:30.596Z,4.00
2018-10-21T01:53:00.431Z,4.00
2018-10-21T01:55:29.032Z,3.90
2018-10-21T01:57:58.208Z,3.90
2018-10-21T02:00:27.438Z,3.90
2018-10-21T02:02:56.519Z,3.90
2018-10-21T02:05:25.368Z,3.80
2018-10-21T02:07:54.187Z,3.80
2018-10-21T02:10:22.747Z,3.70
2018-10-21T02:12:51.295Z,3.70
2018-10-21T02:15:19.875Z,3.60
2018-10-21T02:17:48.412Z,3.50
2018-10-21T02:20:17.554Z,3.50
2018-10-21T02:22:46.813Z,3.50
2018-10-21T02:25:15.465Z,3.50
2018-10-21T02:27:44.891Z,3.40
2018-10-21T02:30:15.419Z,3.40
2018-10-21T02:32:44.717Z,3.40
2018-10-21T02:35:13.851Z,3.40
2018-10-21T02:37:42.801Z,3.40
2018-10-21T02:41:22.888Z,3.40
2018-10-21T02:43:51.716Z,3.40
2018-10-21T02:46:21.180Z,3.40
2018-10-21T02:48:50.259Z,3.30
2018-10-21T02:51:18.938Z,3.30
2018-10-21T02:53:47.467Z,3.20
2018-10-21T02:56:16.040Z,3.20
2018-10-21T02:58:44.590Z,3.30
2018-10-21T03:01:13.151Z,3.30
2018-10-21T03:03:41.689Z,3.40
2018-10-21T03:06:10.243Z,3.40
2018-10-21T03:08:39.327Z,3.50
2018-10-21T03:11:08.011Z,3.50
2018-10-21T03:13:36.559Z,3.50
2018-10-21T03:16:05.356Z,3.50
2018-10-21T03:18:33.994Z,3.50
2018-10-21T03:21:03.555Z,3.50
2018-10-21T03:23:32.392Z,3.50
2018-10-21T03:26:01.202Z,3.60
2018-10-21T03:28:29.935Z,3.60
2018-10-21T03:30:58.503Z,3.50
2018-10-21T03:33:27.330Z,3.50
2018-10-21T03:35:55.621Z,3.60
2018-10-21T03:38:24.195Z,3.50
2018-10-21T03:40:52.787Z,3.40
2018-10-21T03:43:21.315Z,3.30
2018-10-21T03:45:49.891Z,3.30
2018-10-21T03:48:18.427Z,3.30
2018-10-21T03:50:46.968Z,3.20
2018-10-21T03:53:15.536Z,3.20
2018-10-21T03:55:44.502Z,3.20
2018-10-21T03:58:13.148Z,3.20
2018-10-21T04:00:41.714Z,3.30
2018-10-21T04:03:10.276Z,3.30
2018-10-21T04:05:38.869Z,3.30
2018-10-21T04:08:07.438Z,3.30
2018-10-21T04:10:36.044Z,3.30
2018-10-21T04:13:04.884Z,3.30
2018-10-21T04:15:33.513Z,3.30
2018-10-21T04:18:02.120Z,3.30
2018-10-21T04:20:30.674Z,3.30
2018-10-21T04:23:00.580Z,3.30
2018-10-21T04:25:30.288Z,3.20
2018-10-21T04:27:59.721Z,3.10
2018-10-21T04:30:30.338Z,3.00
2018-10-21T04:33:02.888Z,3.00
2018-10-21T04:35:31.754Z,2.90
2018-10-21T04:40:20.451Z,3.00
2018-10-21T04:42:49.539Z,3.00
2018-10-21T04:45:22.384Z,3.20
2018-10-21T04:47:50.927Z,3.40
2018-10-21T04:50:19.481Z,3.50
2018-10-21T04:52:48.023Z,3.70
2018-10-21T04:55:17.166Z,3.80
2018-10-21T04:57:46.902Z,3.90
2018-10-21T05:00:17.847Z,4.00
2018-10-21T05:02:46.389Z,4.10
2018-10-21T05:05:15.591Z,4.20
2018-10-21T05:07:44.219Z,4.20
2018-10-21T05:10:29.139Z,4.30
2018-10-21T05:12:57.964Z,4.20
2018-10-21T05:15:27.534Z,4.20
2018-10-21T05:17:56.179Z,4.30
2018-10-21T05:20:24.771Z,4.30
2018-10-21T05:22:53.385Z,4.30
2018-10-21T05:25:21.962Z,4.20
2018-10-21T05:27:50.506Z,4.20
2018-10-21T05:30:19.022Z,4.20
2018-10-21T05:32:47.579Z,4.20
2018-10-21T05:35:17.073Z,4.10
2018-10-21T05:37:45.605Z,4.20
2018-10-21T05:40:15.988Z,4.20
2018-10-21T05:42:44.929Z,4.20
2018-10-21T05:45:13.550Z,4.20
2018-10-21T05:47:42.406Z,4.20
2018-10-21T05:50:12.081Z,4.20
2018-10-21T05:52:40.990Z,4.10
2018-10-21T05:55:10.320Z,4.00
2018-10-21T05:57:38.969Z,4.00
2018-10-21T06:00:10.881Z,3.90
2018-10-21T06:02:39.395Z,3.80
2018-10-21T06:05:19.020Z,3.70
2018-10-21T06:07:47.585Z,3.70
2018-10-21T06:10:16.172Z,3.60
2018-10-21T06:12:44.803Z,3.60
2018-10-21T06:15:13.328Z,3.60
2018-10-21T06:17:41.858Z,3.70
2018-10-21T06:21:18.116Z,3.70
2018-10-21T06:23:46.811Z,3.70
2018-10-21T06:26:15.369Z,3.70
2018-10-21T06:28:43.904Z,3.80
2018-10-21T06:31:12.513Z,3.90
2018-10-21T06:33:41.149Z,4.00
2018-10-21T06:36:09.727Z,4.10
2018-10-21T06:38:38.259Z,4.20
2018-10-21T06:41:06.912Z,4.20
2018-10-21T06:43:35.495Z,4.30
2018-10-21T06:46:04.135Z,4.40
2018-10-21T06:48:32.759Z,4.60
2018-10-21T06:51:01.310Z,5.20
2018-10-21T06:53:29.842Z,6.70
2018-10-21T06:55:58.352Z,8.00
2018-10-21T06:58:26.883Z,9.10
2018-10-21T07:00:55.480Z,9.90
2018-10-21T07:03:24.036Z,10.70
2018-10-21T07:06:10.947Z,11.00
2018-10-21T07:08:39.484Z,10.20
2018-10-21T07:11:08.098Z,9.70
2018-10-21T07:13:36.895Z,9.20
2018-10-21T07:16:06.227Z,8.80
2018-10-21T07:18:34.791Z,9.00
2018-10-21T07:21:03.563Z,8.70
2018-10-21T07:23:32.169Z,8.40
2018-10-21T07:26:00.830Z,8.10
2018-10-21T07:28:29.767Z,8.40
2018-10-21T07:30:58.532Z,9.90
2018-10-21T07:33:27.147Z,11.60
2018-10-21T07:35:55.704Z,12.90
2018-10-21T07:38:24.302Z,13.70
2018-10-21T07:40:52.877Z,14.00
2018-10-21T07:43:21.443Z,14.30
2018-10-21T07:45:49.996Z,14.30
2018-10-21T07:48:18.540Z,14.80
2018-10-21T07:50:47.146Z,15.50
2018-10-21T07:53:15.814Z,15.50
2018-10-21T07:55:44.837Z,15.20
2018-10-21T07:58:13.610Z,15.70
2018-10-21T08:00:42.146Z,16.30
2018-10-21T08:03:10.768Z,16.80
2018-10-21T08:05:50.389Z,16.80
2018-10-21T08:08:23.074Z,16.40
2018-10-21T08:10:51.694Z,16.90
2018-10-21T08:13:21.700Z,17.50
2018-10-21T08:15:50.399Z,17.70
2018-10-21T08:18:18.964Z,17.80
2018-10-21T08:20:48.695Z,18.60
2018-10-21T08:23:18.246Z,18.20
2018-10-21T08:25:48.404Z,18.20
2018-10-21T08:28:17.042Z,18.30
2018-10-21T08:30:45.559Z,18.30
2018-10-21T08:33:14.119Z,18.80
2018-10-21T08:35:42.690Z,19.60
2018-10-21T08:38:11.248Z,19.70
2018-10-21T08:40:39.833Z,20.00
2018-10-21T08:43:08.420Z,20.50
2018-10-21T08:45:37.001Z,20.60
2018-10-21T08:48:05.692Z,20.10
2018-10-21T08:50:34.256Z,20.70
2018-10-21T08:53:02.882Z,20.70
2018-10-21T08:55:31.463Z,19.70
2018-10-21T08:58:00.148Z,19.20
2018-10-21T09:00:28.771Z,19.60
2018-10-21T09:02:57.385Z,20.40
2018-10-21T09:05:26.126Z,20.80
2018-10-21T09:07:54.686Z,20.50
2018-10-21T09:10:23.460Z,20.10
2018-10-21T09:12:51.764Z,19.70
2018-10-21T09:15:20.383Z,19.30
2018-10-21T09:17:48.931Z,19.10
2018-10-21T09:20:18.680Z,19.40
2018-10-21T09:22:47.246Z,19.90
2018-10-21T09:25:15.988Z,20.30
2018-10-21T09:27:45.206Z,20.80
2018-10-21T09:30:15.697Z,20.90
2018-10-21T09:32:44.329Z,21.40
2018-10-21T09:35:14.478Z,21.20
2018-10-21T09:37:43.529Z,21.80
2018-10-21T09:40:14.711Z,22.00
2018-10-21T09:42:43.712Z,21.70
2018-10-21T09:45:15.697Z,21.50
2018-10-21T09:47:44.804Z,21.50
2018-10-21T09:50:13.870Z,21.40
2018-10-21T09:52:42.519Z,20.90
2018-10-21T09:55:16.454Z,20.50
2018-10-21T09:57:45.859Z,20.70
2018-10-21T10:00:19.831Z,20.70
2018-10-21T10:02:53.745Z,20.50
2018-10-21T10:05:22.357Z,21.20
2018-10-21T10:07:50.858Z,21.50
2018-10-21T10:10:19.424Z,21.80
2018-10-21T10:12:47.996Z,21.50
2018-10-21T10:15:16.666Z,21.60
2018-10-21T10:17:45.257Z,21.80
2018-10-21T10:20:13.790Z,21.70
2018-10-21T10:22:42.356Z,21.60
2018-10-21T10:25:11.711Z,21.40
2018-10-21T10:27:40.762Z,21.60
2018-10-21T10:30:10.951Z,21.60
2018-10-21T10:32:40.711Z,21.30
2018-10-21T10:35:10.068Z,22.20
2018-10-21T10:37:38.657Z,22.40
2018-10-21T10:40:08.731Z,22.60
2018-10-21T10:42:37.275Z,22.50
2018-10-21T10:45:06.473Z,22.30
2018-10-21T10:47:35.123Z,22.10
2018-10-21T10:50:04.318Z,21.50
2018-10-21T10:52:32.885Z,20.70
2018-10-21T10:55:01.592Z,20.20
2018-10-21T10:57:30.107Z,19.20
2018-10-21T10:59:58.885Z,17.90
2018-10-21T11:02:27.254Z,17.20
2018-10-21T11:04:57.001Z,16.80
2018-10-21T11:07:25.627Z,16.40
2018-10-21T11:09:54.233Z,16.30
2018-10-21T11:12:22.847Z,16.20
2018-10-21T11:14:51.432Z,16.20
2018-10-21T11:17:20.068Z,16.00
2018-10-21T11:19:48.649Z,16.00
2018-10-21T11:22:17.288Z,16.10
2018-10-21T11:24:47.824Z,16.20
2018-10-21T11:27:17.229Z,16.20
2018-10-21T11:29:46.701Z,16.20
2018-10-21T11:32:15.291Z,16.20
2018-10-21T11:34:43.882Z,16.20
2018-10-21T11:37:12.581Z,16.20
2018-10-21T11:39:40.982Z,16.10
2018-10-21T11:42:09.513Z,16.00
2018-10-21T11:44:38.110Z,15.90
2018-10-21T11:47:06.667Z,16.00
2018-10-21T11:49:35.219Z,16.00
2018-10-21T11:52:03.798Z,16.10
2018-10-21T11:54:32.330Z,16.10
2018-10-21T11:57:00.876Z,16.10
2018-10-21T11:59:29.464Z,16.00
2018-10-21T12:01:58.037Z,16.00
2018-10-21T12:04:26.606Z,16.00
2018-10-21T12:06:55.194Z,15.80
2018-10-21T12:09:23.704Z,15.80
2018-10-21T12:11:52.219Z,15.70
2018-10-21T12:14:20.747Z,15.70
2018-10-21T12:16:49.378Z,15.80
2018-10-21T12:19:18.000Z,15.90
2018-10-21T12:21:46.483Z,16.00
2018-10-21T12:24:15.069Z,16.00
2018-10-21T12:26:43.620Z,16.10
2018-10-21T12:29:12.206Z,16.20
2018-10-21T12:31:40.738Z,16.30
2018-10-21T12:34:09.303Z,16.30
2018-10-21T12:36:37.876Z,16.40
2018-10-21T12:39:08.624Z,16.40
2018-10-21T12:41:37.155Z,16.50
2018-10-21T12:44:05.731Z,16.50
2018-10-21T12:46:34.277Z,16.50
2018-10-21T12:49:02.837Z,16.60
2018-10-21T12:51:31.399Z,16.70
2018-10-21T12:54:00.020Z,16.60
2018-10-21T12:56:28.503Z,16.60
2018-10-21T12:58:57.031Z,16.50
2018-10-21T13:01:25.575Z,16.70
2018-10-21T13:03:54.170Z,16.60
2018-10-21T13:06:22.704Z,16.60
2018-10-21T13:08:51.238Z,16.70
2018-10-21T13:11:19.828Z,16.70
2018-10-21T13:13:48.362Z,16.70
2018-10-21T13:16:16.948Z,16.80
2018-10-21T13:18:45.411Z,16.80
2018-10-21T13:21:13.953Z,16.80
2018-10-21T13:23:42.460Z,16.70
2018-10-21T13:26:11.047Z,16.80
2018-10-21T13:28:39.627Z,16.70
2018-10-21T13:31:08.184Z,16.70
2018-10-21T13:33:36.715Z,16.50
2018-10-21T13:36:05.466Z,16.60
2018-10-21T13:38:33.971Z,16.60
2018-10-21T13:41:02.467Z,16.60
2018-10-21T13:43:30.971Z,16.60
2018-10-21T13:45:59.946Z,16.50
2018-10-21T13:48:28.500Z,16.50
2018-10-21T13:50:57.098Z,16.50
2018-10-21T13:53:25.747Z,16.50
2018-10-21T13:55:54.238Z,16.40
2018-10-21T13:58:22.791Z,16.30
2018-10-21T14:00:51.377Z,16.30
2018-10-21T14:03:19.995Z,16.30
2018-10-21T14:05:48.551Z,16.30
2018-10-21T14:08:17.117Z,16.30
2018-10-21T14:10:45.647Z,16.20
2018-10-21T14:13:14.235Z,16.20
2018-10-21T14:15:42.747Z,16.20
2018-10-21T14:18:11.287Z,16.20
2018-10-21T14:20:39.845Z,16.10
2018-10-21T14:23:08.391Z,16.10
2018-10-21T14:25:36.958Z,16.10
2018-10-21T14:28:05.784Z,16.10
2018-10-21T14:30:34.428Z,16.00
2018-10-21T14:33:02.924Z,16.00
2018-10-21T14:35:31.436Z,16.00
2018-10-21T14:38:00.067Z,15.90
2018-10-21T14:40:28.549Z,15.90
2018-10-21T14:42:57.092Z,15.90
2018-10-21T14:45:25.640Z,15.90
2018-10-21T14:47:54.141Z,15.90
2018-10-21T14:50:22.684Z,15.90
2018-10-21T14:52:51.224Z,15.90
2018-10-21T14:55:19.747Z,15.90
2018-10-21T14:57:48.291Z,15.80
2018-10-21T15:00:16.915Z,15.80
2018-10-21T15:02:45.405Z,15.80
2018-10-21T15:05:14.302Z,15.70
2018-10-21T15:07:44.948Z,15.60
2018-10-21T15:10:13.559Z,15.50
2018-10-21T15:12:42.183Z,15.50
2018-10-21T15:15:11.226Z,15.40
2018-10-21T15:17:40.111Z,15.30
2018-10-21T15:20:10.724Z,15.30
2018-10-21T15:22:39.270Z,15.20
2018-10-21T15:25:09.409Z,15.30
2018-10-21T15:27:38.018Z,15.30
2018-10-21T15:30:07.898Z,15.10
2018-10-21T15:32:36.511Z,15.20
2018-10-21T15:35:05.786Z,15.20
2018-10-21T15:37:34.339Z,15.10
2018-10-21T15:40:03.095Z,15.00
2018-10-21T15:42:31.619Z,15.00
2018-10-21T15:45:00.187Z,15.00
2018-10-21T15:47:28.714Z,14.90
2018-10-21T15:49:57.283Z,14.80
2018-10-21T15:52:25.920Z,14.70
2018-10-21T15:54:54.443Z,14.70
2018-10-21T15:57:22.999Z,14.60
2018-10-21T15:59:51.562Z,14.50
2018-10-21T16:02:20.223Z,14.40
2018-10-21T16:04:48.671Z,14.40
2018-10-21T16:07:17.199Z,14.40
2018-10-21T16:09:45.697Z,14.30
2018-10-21T16:12:14.279Z,14.20
2018-10-21T16:14:42.835Z,14.00
2018-10-21T16:17:11.406Z,13.90
2018-10-21T16:19:40.028Z,13.70
2018-10-21T16:22:09.029Z,13.60
2018-10-21T16:24:37.552Z,13.50
2018-10-21T16:27:06.112Z,13.40
2018-10-21T16:29:34.644Z,13.30
2018-10-21T16:32:03.396Z,13.20
2018-10-21T16:34:31.796Z,13.00
2018-10-21T16:37:00.355Z,12.80
2018-10-21T16:39:28.950Z,12.70
2018-10-21T16:41:57.531Z,12.50
2018-10-21T16:44:26.070Z,12.40
2018-10-21T16:46:54.616Z,12.30
2018-10-21T16:49:23.427Z,12.20
2018-10-21T16:51:52.125Z,12.10
2018-10-21T16:54:20.726Z,12.00
2018-10-21T16:56:49.155Z,11.90
2018-10-21T16:59:17.708Z,11.80
2018-10-21T17:01:46.211Z,11.70
2018-10-21T17:04:14.719Z,11.60
2018-10-21T17:06:43.266Z,11.50
2018-10-21T17:09:14.115Z,11.40
2018-10-21T17:11:49.171Z,11.40
2018-10-21T17:14:17.691Z,11.30
2018-10-21T17:16:46.265Z,11.20
2018-10-21T17:19:14.844Z,11.10
2018-10-21T17:21:43.372Z,11.00
2018-10-21T17:24:11.909Z,11.00
2018-10-21T17:26:40.487Z,10.90
2018-10-21T17:29:09.134Z,10.80
2018-10-21T17:31:37.664Z,10.80
2018-10-21T17:34:06.317Z,10.70
2018-10-21T17:36:34.767Z,10.60
2018-10-21T17:39:03.521Z,10.60
2018-10-21T17:41:32.064Z,10.50
2018-10-21T17:44:00.579Z,10.50
2018-10-21T17:46:29.112Z,10.40
2018-10-21T17:48:57.714Z,10.40
2018-10-21T17:51:26.258Z,10.30
2018-10-21T17:53:54.867Z,10.20
2018-10-21T17:56:23.376Z,10.20
2018-10-21T17:58:51.927Z,10.10
2018-10-21T18:01:20.468Z,10.10
2018-10-21T18:03:48.970Z,10.00
2018-10-21T18:06:17.531Z,10.10
2018-10-21T18:08:46.063Z,10.10
2018-10-21T18:11:14.621Z,10.20
2018-10-21T18:13:43.163Z,10.10
2018-10-21T18:16:11.761Z,10.20
2018-10-21T18:18:40.234Z,10.20
2018-10-21T18:21:08.909Z,10.20
2018-10-21T18:23:37.435Z,10.20
2018-10-21T18:26:06.110Z,10.10
2018-10-21T18:28:34.566Z,10.10
2018-10-21T18:31:03.146Z,10.00
2018-10-21T18:33:31.936Z,10.00
2018-10-21T18:36:01.132Z,9.90
2018-10-21T18:38:30.020Z,9.80
2018-10-21T18:40:58.961Z,9.70
2018-10-21T18:43:27.444Z,9.70
2018-10-21T18:45:56.023Z,9.60
2018-10-21T18:48:24.571Z,9.50
2018-10-21T18:50:53.128Z,9.40
2018-10-21T18:53:21.654Z,9.30
2018-10-21T18:55:50.480Z,9.20
2018-10-21T18:58:19.202Z,9.10
2018-10-21T19:00:47.679Z,9.00
2018-10-21T19:03:16.252Z,8.90
2018-10-21T19:05:44.773Z,8.90
2018-10-21T19:08:13.321Z,8.80
2018-10-21T19:10:41.879Z,8.70
2018-10-21T19:13:10.470Z,8.70
2018-10-21T19:15:39.104Z,8.70
2018-10-21T19:18:07.675Z,8.70
2018-10-21T19:20:36.218Z,8.70
2018-10-21T19:23:04.971Z,8.70
2018-10-21T19:25:33.594Z,8.70
2018-10-21T19:28:02.125Z,8.70
2018-10-21T19:30:30.685Z,8.60
2018-10-21T19:32:59.339Z,8.60
2018-10-21T19:35:27.924Z,8.50
2018-10-21T19:37:56.446Z,8.50
2018-10-21T19:40:25.003Z,8.40
2018-10-21T19:42:53.589Z,8.40
2018-10-21T19:45:22.122Z,8.40
2018-10-21T19:47:50.663Z,8.30
2018-10-21T19:50:19.174Z,8.30
2018-10-21T19:52:47.699Z,8.20
2018-10-21T19:55:16.315Z,8.20
2018-10-21T19:57:44.754Z,8.10
2018-10-21T20:00:14.832Z,8.10
2018-10-21T20:02:43.906Z,8.10
2018-10-21T20:05:12.566Z,8.10
2018-10-21T20:07:41.164Z,8.10
2018-10-21T20:10:15.500Z,8.20
2018-10-21T20:12:43.959Z,8.20
2018-10-21T20:15:13.165Z,8.20
2018-10-21T20:17:41.829Z,8.20
2018-10-21T20:20:12.021Z,8.20
2018-10-21T20:22:40.556Z,8.00
2018-10-21T20:25:10.090Z,7.90
2018-10-21T20:27:38.538Z,7.80
2018-10-21T20:30:08.787Z,7.70
2018-10-21T20:32:37.386Z,7.70
2018-10-21T20:35:07.879Z,7.60
2018-10-21T20:37:36.549Z,7.60
2018-10-21T20:40:06.552Z,7.50
2018-10-21T20:42:35.166Z,7.50
2018-10-21T20:45:03.814Z,7.50
2018-10-21T20:47:32.381Z,7.50
2018-10-21T20:50:00.949Z,7.50
2018-10-21T20:52:29.483Z,7.50
2018-10-21T20:54:58.082Z,7.60
2018-10-21T20:57:26.601Z,7.60
2018-10-21T20:59:55.293Z,7.70
2018-10-21T21:02:23.904Z,7.70
2018-10-21T21:04:52.482Z,7.70
2018-10-21T21:07:21.036Z,7.70
2018-10-21T21:09:49.641Z,7.60
2018-10-21T21:12:18.201Z,7.60
2018-10-21T21:14:46.767Z,7.50
2018-10-21T21:17:15.320Z,7.50
2018-10-21T21:19:43.919Z,7.40
2018-10-21T21:22:12.551Z,7.30
2018-10-21T21:24:41.060Z,7.30
2018-10-21T21:27:09.635Z,7.10
2018-10-21T21:29:38.182Z,7.00
2018-10-21T21:32:07.172Z,7.00
2018-10-21T21:34:35.684Z,6.90
2018-10-21T21:37:04.216Z,6.80
2018-10-21T21:39:32.789Z,6.80
2018-10-21T21:42:01.411Z,6.90
2018-10-21T21:44:29.923Z,6.90
2018-10-21T21:46:58.441Z,6.80
2018-10-21T21:49:26.993Z,6.70
2018-10-21T21:51:55.580Z,6.70
2018-10-21T21:54:24.081Z,6.70
2018-10-21T21:56:52.588Z,6.70
2018-10-21T21:59:21.120Z,6.60
2018-10-21T22:01:49.711Z,6.60
2018-10-21T22:04:18.298Z,6.60
2018-10-21T22:06:46.798Z,6.60
2018-10-21T22:09:15.346Z,6.60
2018-10-21T22:11:43.910Z,6.60
2018-10-21T22:14:12.489Z,6.60
2018-10-21T22:16:41.044Z,6.60
2018-10-21T22:19:09.644Z,6.70
2018-10-21T22:21:38.855Z,6.60
2018-10-21T22:24:08.514Z,6.70
2018-10-21T22:26:37.054Z,6.70
2018-10-21T22:29:06.474Z,6.70
2018-10-21T22:31:35.041Z,6.80
2018-10-21T22:34:03.638Z,6.80
2018-10-21T22:36:32.172Z,6.80
2018-10-21T22:39:00.799Z,6.80
2018-10-21T22:41:29.359Z,6.70
2018-10-21T22:43:57.903Z,6.60
2018-10-21T22:46:26.494Z,6.50
2018-10-21T22:48:55.032Z,6.30
2018-10-21T22:51:23.578Z,6.20
2018-10-21T22:53:52.127Z,6.20
2018-10-21T22:56:20.655Z,6.20
2018-10-21T22:58:49.181Z,6.10
2018-10-21T23:01:17.730Z,6.00
2018-10-21T23:03:46.291Z,5.90
2018-10-21T23:06:14.961Z,5.90
2018-10-21T23:08:43.509Z,5.90
2018-10-21T23:11:12.097Z,5.90
2018-10-21T23:13:40.785Z,5.80
2018-10-21T23:16:09.714Z,5.80
2018-10-21T23:18:38.282Z,5.80
2018-10-21T23:21:06.816Z,5.80
2018-10-21T23:23:35.333Z,5.80
2018-10-21T23:26:03.922Z,5.80
2018-10-21T23:28:32.470Z,5.90
2018-10-21T23:31:00.966Z,5.90
2018-10-21T23:33:29.498Z,5.90
2018-10-21T23:35:58.147Z,5.90
2018-10-21T23:38:26.594Z,6.00
2018-10-21T23:40:55.134Z,6.00
2018-10-21T23:43:23.666Z,6.00
2018-10-21T23:45:52.208Z,6.00
2018-10-21T23:48:20.782Z,6.10
2018-10-21T23:50:49.314Z,6.30
2018-10-21T23:53:17.816Z,6.30
2018-10-21T23:55:46.336Z,6.30
2018-10-21T23:58:14.929Z,6.20
